sensor_id;sensor_type;location;lat;lon;timestamp;temperature;humidity
56300;DHT22;42209;6.376;-10.782;2024-01-06T00:02:15;24.00;61.30
56300;DHT22;42209;6.376;-10.782;2024-01-06T00:04:43;24.10;62.60
56300;DHT22;42209;6.376;-10.782;2024-01-06T00:07:12;24.20;63.50
56300;DHT22;42209;6.376;-10.782;2024-01-06T00:09:40;24.30;64.70
56300;DHT22;42209;6.376;-10.782;2024-01-06T00:12:08;24.20;59.50
56300;DHT22;42209;6.376;-10.782;2024-01-06T00:14:37;24.00;57.00
56300;DHT22;42209;6.376;-10.782;2024-01-06T00:17:05;23.80;55.40
56300;DHT22;42209;6.376;-10.782;2024-01-06T00:19:34;23.60;53.90
56300;DHT22;42209;6.376;-10.782;2024-01-06T00:22:02;23.50;52.80
56300;DHT22;42209;6.376;-10.782;2024-01-06T00:24:31;23.60;56.30
56300;DHT22;42209;6.376;-10.782;2024-01-06T00:26:59;23.80;58.70
56300;DHT22;42209;6.376;-10.782;2024-01-06T00:29:28;23.90;60.40
56300;DHT22;42209;6.376;-10.782;2024-01-06T00:31:56;24.00;61.80
56300;DHT22;42209;6.376;-10.782;2024-01-06T00:34:24;24.10;63.10
56300;DHT22;42209;6.376;-10.782;2024-01-06T00:36:53;24.20;64.20
56300;DHT22;42209;6.376;-10.782;2024-01-06T00:39:21;24.30;63.20
56300;DHT22;42209;6.376;-10.782;2024-01-06T00:41:50;24.10;58.90
56300;DHT22;42209;6.376;-10.782;2024-01-06T00:44:18;23.90;56.50
56300;DHT22;42209;6.376;-10.782;2024-01-06T00:46:46;23.70;55.10
56300;DHT22;42209;6.376;-10.782;2024-01-06T00:49:15;23.60;53.80
56300;DHT22;42209;6.376;-10.782;2024-01-06T00:51:44;23.50;52.90
56300;DHT22;42209;6.376;-10.782;2024-01-06T00:54:12;23.50;54.30
56300;DHT22;42209;6.376;-10.782;2024-01-06T00:56:40;23.70;57.60
56300;DHT22;42209;6.376;-10.782;2024-01-06T00:59:09;23.80;59.30
56300;DHT22;42209;6.376;-10.782;2024-01-06T01:01:40;24.00;60.90
56300;DHT22;42209;6.376;-10.782;2024-01-06T01:04:08;24.10;62.30
56300;DHT22;42209;6.376;-10.782;2024-01-06T01:06:37;24.20;63.30
56300;DHT22;42209;6.376;-10.782;2024-01-06T01:09:05;24.30;64.40
56300;DHT22;42209;6.376;-10.782;2024-01-06T01:11:34;24.30;62.70
56300;DHT22;42209;6.376;-10.782;2024-01-06T01:14:02;24.10;58.50
56300;DHT22;42209;6.376;-10.782;2024-01-06T01:16:30;23.90;56.30
56300;DHT22;42209;6.376;-10.782;2024-01-06T01:18:59;23.60;54.10
56300;DHT22;42209;6.376;-10.782;2024-01-06T01:21:27;23.50;57.80
56300;DHT22;42209;6.376;-10.782;2024-01-06T01:23:56;23.70;60.60
56300;DHT22;42209;6.376;-10.782;2024-01-06T01:26:24;23.90;62.30
56300;DHT22;42209;6.376;-10.782;2024-01-06T01:28:52;24.00;63.60
56300;DHT22;42209;6.376;-10.782;2024-01-06T01:31:21;24.00;64.90
56300;DHT22;42209;6.376;-10.782;2024-01-06T01:33:50;24.20;66.10
56300;DHT22;42209;6.376;-10.782;2024-01-06T01:36:18;24.20;67.10
56300;DHT22;42209;6.376;-10.782;2024-01-06T01:38:47;24.30;67.90
56300;DHT22;42209;6.376;-10.782;2024-01-06T01:41:15;24.30;64.60
56300;DHT22;42209;6.376;-10.782;2024-01-06T01:43:45;24.10;60.20
56300;DHT22;42209;6.376;-10.782;2024-01-06T01:46:13;23.80;57.90
56300;DHT22;42209;6.376;-10.782;2024-01-06T01:48:42;23.70;56.70
56300;DHT22;42209;6.376;-10.782;2024-01-06T01:51:10;23.50;55.10
56300;DHT22;42209;6.376;-10.782;2024-01-06T01:53:39;23.50;53.90
56300;DHT22;42209;6.376;-10.782;2024-01-06T01:56:07;23.40;55.60
56300;DHT22;42209;6.376;-10.782;2024-01-06T01:58:36;23.60;58.90
56300;DHT22;42209;6.376;-10.782;2024-01-06T02:01:04;23.80;60.80
56300;DHT22;42209;6.376;-10.782;2024-01-06T02:03:33;24.00;62.20
56300;DHT22;42209;6.376;-10.782;2024-01-06T02:06:03;24.10;63.60
56300;DHT22;42209;6.376;-10.782;2024-01-06T02:08:31;24.20;64.60
56300;DHT22;42209;6.376;-10.782;2024-01-06T02:11:00;24.20;65.50
56300;DHT22;42209;6.376;-10.782;2024-01-06T02:13:37;24.30;63.50
56300;DHT22;42209;6.376;-10.782;2024-01-06T02:16:06;24.00;59.00
56300;DHT22;42209;6.376;-10.782;2024-01-06T02:18:34;23.90;56.90
56300;DHT22;42209;6.376;-10.782;2024-01-06T02:21:03;23.70;55.60
56300;DHT22;42209;6.376;-10.782;2024-01-06T02:23:33;23.60;54.10
56300;DHT22;42209;6.376;-10.782;2024-01-06T02:26:02;23.50;53.20
56300;DHT22;42209;6.376;-10.782;2024-01-06T02:28:31;23.60;57.20
56300;DHT22;42209;6.376;-10.782;2024-01-06T02:30:59;23.70;59.50
56300;DHT22;42209;6.376;-10.782;2024-01-06T02:33:28;23.90;61.00
56300;DHT22;42209;6.376;-10.782;2024-01-06T02:35:56;24.00;62.40
56300;DHT22;42209;6.376;-10.782;2024-01-06T02:38:25;24.10;63.50
56300;DHT22;42209;6.376;-10.782;2024-01-06T02:40:53;24.20;64.50
56300;DHT22;42209;6.376;-10.782;2024-01-06T02:43:21;24.30;65.30
56300;DHT22;42209;6.376;-10.782;2024-01-06T02:45:50;24.20;61.80
56300;DHT22;42209;6.376;-10.782;2024-01-06T02:48:18;24.00;58.20
56300;DHT22;42209;6.376;-10.782;2024-01-06T02:50:47;23.80;56.60
56300;DHT22;42209;6.376;-10.782;2024-01-06T02:53:16;23.60;55.00
56300;DHT22;42209;6.376;-10.782;2024-01-06T02:55:44;23.50;53.80
56300;DHT22;42209;6.376;-10.782;2024-01-06T02:58:12;23.60;57.00
56300;DHT22;42209;6.376;-10.782;2024-01-06T03:00:41;23.70;59.60
56300;DHT22;42209;6.376;-10.782;2024-01-06T03:03:09;23.90;61.10
56300;DHT22;42209;6.376;-10.782;2024-01-06T03:05:38;24.00;62.50
56300;DHT22;42209;6.376;-10.782;2024-01-06T03:08:06;24.10;63.60
56300;DHT22;42209;6.376;-10.782;2024-01-06T03:10:35;24.20;64.80
56300;DHT22;42209;6.376;-10.782;2024-01-06T03:13:03;24.30;65.70
56300;DHT22;42209;6.376;-10.782;2024-01-06T03:15:31;24.20;61.70
56300;DHT22;42209;6.376;-10.782;2024-01-06T03:18:00;24.00;58.60
56300;DHT22;42209;6.376;-10.782;2024-01-06T03:20:28;23.80;57.30
56300;DHT22;42209;6.376;-10.782;2024-01-06T03:22:57;23.60;55.10
56300;DHT22;42209;6.376;-10.782;2024-01-06T03:25:25;23.50;53.90
56300;DHT22;42209;6.376;-10.782;2024-01-06T03:27:53;23.40;52.90
56300;DHT22;42209;6.376;-10.782;2024-01-06T03:30:22;23.40;51.90
56300;DHT22;42209;6.376;-10.782;2024-01-06T03:32:50;23.50;55.90
56300;DHT22;42209;6.376;-10.782;2024-01-06T03:35:19;23.70;58.30
56300;DHT22;42209;6.376;-10.782;2024-01-06T03:37:47;23.90;59.70
56300;DHT22;42209;6.376;-10.782;2024-01-06T03:40:15;24.00;61.20
56300;DHT22;42209;6.376;-10.782;2024-01-06T03:42:44;24.10;62.30
56300;DHT22;42209;6.376;-10.782;2024-01-06T03:45:12;24.10;63.40
56300;DHT22;42209;6.376;-10.782;2024-01-06T03:47:41;24.20;64.60
56300;DHT22;42209;6.376;-10.782;2024-01-06T03:50:09;24.30;65.90
56300;DHT22;42209;6.376;-10.782;2024-01-06T03:52:38;24.20;60.60
56300;DHT22;42209;6.376;-10.782;2024-01-06T03:55:07;23.90;57.90
56300;DHT22;42209;6.376;-10.782;2024-01-06T03:57:35;23.80;56.00
56300;DHT22;42209;6.376;-10.782;2024-01-06T04:00:04;23.60;54.60
56300;DHT22;42209;6.376;-10.782;2024-01-06T04:02:33;23.40;53.30
56300;DHT22;42209;6.376;-10.782;2024-01-06T04:05:03;23.50;56.90
56300;DHT22;42209;6.376;-10.782;2024-01-06T04:07:32;23.70;59.30
56300;DHT22;42209;6.376;-10.782;2024-01-06T04:10:01;23.80;61.20
56300;DHT22;42209;6.376;-10.782;2024-01-06T04:12:29;24.00;62.30
56300;DHT22;42209;6.376;-10.782;2024-01-06T04:14:57;24.00;63.30
56300;DHT22;42209;6.376;-10.782;2024-01-06T04:17:26;24.10;64.40
56300;DHT22;42209;6.376;-10.782;2024-01-06T04:19:54;24.20;65.20
56300;DHT22;42209;6.376;-10.782;2024-01-06T04:22:22;24.30;64.40
56300;DHT22;42209;6.376;-10.782;2024-01-06T04:24:51;24.00;59.50
56300;DHT22;42209;6.376;-10.782;2024-01-06T04:27:19;23.90;57.20
56300;DHT22;42209;6.376;-10.782;2024-01-06T04:29:48;23.70;55.90
56300;DHT22;42209;6.376;-10.782;2024-01-06T04:32:16;23.50;54.20
56300;DHT22;42209;6.376;-10.782;2024-01-06T04:34:44;23.40;53.20
56300;DHT22;42209;6.376;-10.782;2024-01-06T04:37:13;23.30;52.50
56300;DHT22;42209;6.376;-10.782;2024-01-06T04:39:41;23.40;56.30
56300;DHT22;42209;6.376;-10.782;2024-01-06T04:42:09;23.60;58.40
56300;DHT22;42209;6.376;-10.782;2024-01-06T04:44:38;23.80;60.20
56300;DHT22;42209;6.376;-10.782;2024-01-06T04:47:06;23.90;61.60
56300;DHT22;42209;6.376;-10.782;2024-01-06T04:49:34;24.00;62.80
56300;DHT22;42209;6.376;-10.782;2024-01-06T04:52:03;24.10;63.80
56300;DHT22;42209;6.376;-10.782;2024-01-06T04:54:31;24.20;64.80
56300;DHT22;42209;6.376;-10.782;2024-01-06T04:57:00;24.20;65.40
56300;DHT22;42209;6.376;-10.782;2024-01-06T04:59:28;24.20;61.60
56300;DHT22;42209;6.376;-10.782;2024-01-06T05:01:58;23.90;58.60
56300;DHT22;42209;6.376;-10.782;2024-01-06T05:04:29;23.70;56.40
56300;DHT22;42209;6.376;-10.782;2024-01-06T05:06:57;23.60;55.30
56300;DHT22;42209;6.376;-10.782;2024-01-06T05:09:26;23.40;53.60
56300;DHT22;42209;6.376;-10.782;2024-01-06T05:11:54;23.50;57.60
56300;DHT22;42209;6.376;-10.782;2024-01-06T05:14:23;23.70;59.90
56300;DHT22;42209;6.376;-10.782;2024-01-06T05:16:51;23.80;61.60
56300;DHT22;42209;6.376;-10.782;2024-01-06T05:19:19;24.00;62.80
56300;DHT22;42209;6.376;-10.782;2024-01-06T05:21:52;24.00;64.40
56300;DHT22;42209;6.376;-10.782;2024-01-06T05:24:26;24.10;64.80
56300;DHT22;42209;6.376;-10.782;2024-01-06T05:26:55;24.20;65.60
56300;DHT22;42209;6.376;-10.782;2024-01-06T05:29:23;24.30;65.70
56300;DHT22;42209;6.376;-10.782;2024-01-06T05:31:52;24.10;60.60
56300;DHT22;42209;6.376;-10.782;2024-01-06T05:34:22;23.90;57.70
56300;DHT22;42209;6.376;-10.782;2024-01-06T05:36:51;23.70;56.20
56300;DHT22;42209;6.376;-10.782;2024-01-06T05:39:19;23.50;54.50
56300;DHT22;42209;6.376;-10.782;2024-01-06T05:41:47;23.40;56.90
56300;DHT22;42209;6.376;-10.782;2024-01-06T05:44:16;23.60;60.00
56300;DHT22;42209;6.376;-10.782;2024-01-06T05:46:46;23.80;61.50
56300;DHT22;42209;6.376;-10.782;2024-01-06T05:49:14;23.90;62.80
56300;DHT22;42209;6.376;-10.782;2024-01-06T05:51:46;24.00;64.00
56300;DHT22;42209;6.376;-10.782;2024-01-06T05:54:14;24.10;64.80
56300;DHT22;42209;6.376;-10.782;2024-01-06T05:56:43;24.20;65.50
56300;DHT22;42209;6.376;-10.782;2024-01-06T05:59:12;24.20;65.90
56300;DHT22;42209;6.376;-10.782;2024-01-06T06:01:40;24.20;62.50
56300;DHT22;42209;6.376;-10.782;2024-01-06T06:04:09;23.90;58.50
56300;DHT22;42209;6.376;-10.782;2024-01-06T06:06:38;23.70;56.30
56300;DHT22;42209;6.376;-10.782;2024-01-06T06:09:06;23.60;55.10
56300;DHT22;42209;6.376;-10.782;2024-01-06T06:11:36;23.40;55.30
56300;DHT22;42209;6.376;-10.782;2024-01-06T06:14:04;23.60;59.00
56300;DHT22;42209;6.376;-10.782;2024-01-06T06:16:33;23.70;61.20
56300;DHT22;42209;6.376;-10.782;2024-01-06T06:19:01;23.90;62.70
56300;DHT22;42209;6.376;-10.782;2024-01-06T06:21:29;24.00;64.00
56300;DHT22;42209;6.376;-10.782;2024-01-06T06:23:58;24.10;65.60
56300;DHT22;42209;6.376;-10.782;2024-01-06T06:26:27;24.10;65.60
56300;DHT22;42209;6.376;-10.782;2024-01-06T06:28:56;24.20;66.20
56300;DHT22;42209;6.376;-10.782;2024-01-06T06:31:24;24.10;62.10
56300;DHT22;42209;6.376;-10.782;2024-01-06T06:33:53;23.90;58.50
56300;DHT22;42209;6.376;-10.782;2024-01-06T06:36:21;23.70;56.80
56300;DHT22;42209;6.376;-10.782;2024-01-06T06:38:50;23.60;55.40
56300;DHT22;42209;6.376;-10.782;2024-01-06T06:41:19;23.50;54.00
56300;DHT22;42209;6.376;-10.782;2024-01-06T06:43:51;23.40;57.60
56300;DHT22;42209;6.376;-10.782;2024-01-06T06:46:20;23.60;59.90
56300;DHT22;42209;6.376;-10.782;2024-01-06T06:48:48;23.70;61.40
56300;DHT22;42209;6.376;-10.782;2024-01-06T06:51:16;23.90;62.50
56300;DHT22;42209;6.376;-10.782;2024-01-06T06:53:45;23.90;64.00
56300;DHT22;42209;6.376;-10.782;2024-01-06T06:56:16;24.00;64.60
56300;DHT22;42209;6.376;-10.782;2024-01-06T06:58:45;24.00;65.80
56300;DHT22;42209;6.376;-10.782;2024-01-06T07:01:16;24.20;66.30
56300;DHT22;42209;6.376;-10.782;2024-01-06T07:03:45;24.10;61.70
56300;DHT22;42209;6.376;-10.782;2024-01-06T07:06:14;23.80;58.30
56300;DHT22;42209;6.376;-10.782;2024-01-06T07:08:43;23.60;56.30
56300;DHT22;42209;6.376;-10.782;2024-01-06T07:11:11;23.50;55.10
56300;DHT22;42209;6.376;-10.782;2024-01-06T07:13:40;23.50;58.30
56300;DHT22;42209;6.376;-10.782;2024-01-06T07:16:09;23.60;60.80
56300;DHT22;42209;6.376;-10.782;2024-01-06T07:18:46;23.80;62.20
56300;DHT22;42209;6.376;-10.782;2024-01-06T07:21:14;23.90;63.60
56300;DHT22;42209;6.376;-10.782;2024-01-06T07:23:43;24.00;64.70
56300;DHT22;42209;6.376;-10.782;2024-01-06T07:26:11;24.10;65.60
56300;DHT22;42209;6.376;-10.782;2024-01-06T07:28:40;24.20;66.20
56300;DHT22;42209;6.376;-10.782;2024-01-06T07:31:08;24.20;65.70
56300;DHT22;42209;6.376;-10.782;2024-01-06T07:33:36;24.00;60.10
56300;DHT22;42209;6.376;-10.782;2024-01-06T07:36:05;23.80;57.60
56300;DHT22;42209;6.376;-10.782;2024-01-06T07:38:33;23.60;56.10
56300;DHT22;42209;6.376;-10.782;2024-01-06T07:41:02;23.50;54.60
56300;DHT22;42209;6.376;-10.782;2024-01-06T07:43:31;23.30;53.30
56300;DHT22;42209;6.376;-10.782;2024-01-06T07:45:59;23.40;57.20
56300;DHT22;42209;6.376;-10.782;2024-01-06T07:48:27;23.60;59.20
56300;DHT22;42209;6.376;-10.782;2024-01-06T07:50:56;23.70;60.90
56300;DHT22;42209;6.376;-10.782;2024-01-06T07:53:24;23.90;62.20
56300;DHT22;42209;6.376;-10.782;2024-01-06T07:55:53;24.00;63.40
56300;DHT22;42209;6.376;-10.782;2024-01-06T07:58:21;24.00;64.40
56300;DHT22;42209;6.376;-10.782;2024-01-06T08:00:49;24.10;65.90
56300;DHT22;42209;6.376;-10.782;2024-01-06T08:03:18;24.20;67.10
56300;DHT22;42209;6.376;-10.782;2024-01-06T08:05:47;24.20;63.80
56300;DHT22;42209;6.376;-10.782;2024-01-06T08:08:15;23.90;60.10
56300;DHT22;42209;6.376;-10.782;2024-01-06T08:10:43;23.70;57.70
56300;DHT22;42209;6.376;-10.782;2024-01-06T08:13:12;23.50;56.80
56300;DHT22;42209;6.376;-10.782;2024-01-06T08:15:40;23.40;57.50
56300;DHT22;42209;6.376;-10.782;2024-01-06T08:18:09;23.60;61.30
56300;DHT22;42209;6.376;-10.782;2024-01-06T08:20:37;23.70;62.60
56300;DHT22;42209;6.376;-10.782;2024-01-06T08:23:05;23.90;64.10
56300;DHT22;42209;6.376;-10.782;2024-01-06T08:25:34;24.00;65.70
56300;DHT22;42209;6.376;-10.782;2024-01-06T08:28:02;24.00;66.50
56300;DHT22;42209;6.376;-10.782;2024-01-06T08:30:31;24.10;67.40
56300;DHT22;42209;6.376;-10.782;2024-01-06T08:32:59;24.20;67.80
56300;DHT22;42209;6.376;-10.782;2024-01-06T08:35:28;24.10;63.60
56300;DHT22;42209;6.376;-10.782;2024-01-06T08:37:57;23.90;59.90
56300;DHT22;42209;6.376;-10.782;2024-01-06T08:40:25;23.60;58.10
56300;DHT22;42209;6.376;-10.782;2024-01-06T08:42:54;23.50;56.50
56300;DHT22;42209;6.376;-10.782;2024-01-06T08:45:22;23.40;55.00
56300;DHT22;42209;6.376;-10.782;2024-01-06T08:47:51;23.30;53.90
56300;DHT22;42209;6.376;-10.782;2024-01-06T08:50:19;23.20;53.40
56300;DHT22;42209;6.376;-10.782;2024-01-06T08:52:48;23.30;57.70
56300;DHT22;42209;6.376;-10.782;2024-01-06T08:55:16;23.50;59.60
56300;DHT22;42209;6.376;-10.782;2024-01-06T08:57:44;23.70;61.30
56300;DHT22;42209;6.376;-10.782;2024-01-06T09:00:13;23.80;62.60
56300;DHT22;42209;6.376;-10.782;2024-01-06T09:02:42;23.90;63.80
56300;DHT22;42209;6.376;-10.782;2024-01-06T09:05:10;24.00;65.00
56300;DHT22;42209;6.376;-10.782;2024-01-06T09:07:39;24.00;65.90
56300;DHT22;42209;6.376;-10.782;2024-01-06T09:10:08;24.10;66.60
56300;DHT22;42209;6.376;-10.782;2024-01-06T09:12:36;24.20;66.30
56300;DHT22;42209;6.376;-10.782;2024-01-06T09:15:05;24.00;61.40
56300;DHT22;42209;6.376;-10.782;2024-01-06T09:17:33;23.80;58.80
56300;DHT22;42209;6.376;-10.782;2024-01-06T09:20:02;23.60;57.10
56300;DHT22;42209;6.376;-10.782;2024-01-06T09:22:31;23.50;55.50
56300;DHT22;42209;6.376;-10.782;2024-01-06T09:24:59;23.30;54.30
56300;DHT22;42209;6.376;-10.782;2024-01-06T09:27:28;23.30;53.60
56300;DHT22;42209;6.376;-10.782;2024-01-06T09:29:56;23.30;55.80
56300;DHT22;42209;6.376;-10.782;2024-01-06T09:32:24;23.40;58.90
56300;DHT22;42209;6.376;-10.782;2024-01-06T09:34:53;23.60;60.70
56300;DHT22;42209;6.376;-10.782;2024-01-06T09:37:21;23.80;62.20
56300;DHT22;42209;6.376;-10.782;2024-01-06T09:39:50;23.90;64.20
56300;DHT22;42209;6.376;-10.782;2024-01-06T09:42:18;23.90;65.20
56300;DHT22;42209;6.376;-10.782;2024-01-06T09:44:51;24.00;66.00
56300;DHT22;42209;6.376;-10.782;2024-01-06T09:47:22;24.10;66.80
56300;DHT22;42209;6.376;-10.782;2024-01-06T09:49:51;24.10;67.30
56300;DHT22;42209;6.376;-10.782;2024-01-06T09:52:22;24.00;62.80
56300;DHT22;42209;6.376;-10.782;2024-01-06T09:54:54;23.80;59.50
56300;DHT22;42209;6.376;-10.782;2024-01-06T09:57:24;23.60;57.50
56300;DHT22;42209;6.376;-10.782;2024-01-06T09:59:52;23.50;56.20
56300;DHT22;42209;6.376;-10.782;2024-01-06T10:02:20;23.40;54.90
56300;DHT22;42209;6.376;-10.782;2024-01-06T10:04:49;23.30;53.90
56300;DHT22;42209;6.376;-10.782;2024-01-06T10:07:18;23.20;52.60
56300;DHT22;42209;6.376;-10.782;2024-01-06T10:09:46;23.30;51.50
56300;DHT22;42209;6.376;-10.782;2024-01-06T10:12:15;23.20;50.40
56300;DHT22;42209;6.376;-10.782;2024-01-06T10:14:44;23.20;49.70
56300;DHT22;42209;6.376;-10.782;2024-01-06T10:17:12;23.20;48.60
56300;DHT22;42209;6.376;-10.782;2024-01-06T10:19:41;23.10;48.00
56300;DHT22;42209;6.376;-10.782;2024-01-06T10:22:12;23.10;47.30
56300;DHT22;42209;6.376;-10.782;2024-01-06T10:24:41;23.10;48.60
56300;DHT22;42209;6.376;-10.782;2024-01-06T10:27:09;23.20;52.80
56300;DHT22;42209;6.376;-10.782;2024-01-06T10:29:37;23.40;55.90
56300;DHT22;42209;6.376;-10.782;2024-01-06T10:32:06;23.60;58.40
56300;DHT22;42209;6.376;-10.782;2024-01-06T10:34:34;23.70;59.30
56300;DHT22;42209;6.376;-10.782;2024-01-06T10:37:02;23.80;60.40
56300;DHT22;42209;6.376;-10.782;2024-01-06T10:39:31;23.90;61.50
56300;DHT22;42209;6.376;-10.782;2024-01-06T10:42:03;24.00;62.70
56300;DHT22;42209;6.376;-10.782;2024-01-06T10:44:32;24.00;63.50
56300;DHT22;42209;6.376;-10.782;2024-01-06T10:47:03;24.00;64.00
56300;DHT22;42209;6.376;-10.782;2024-01-06T10:49:31;24.10;63.10
56300;DHT22;42209;6.376;-10.782;2024-01-06T10:52:01;23.90;58.80
56300;DHT22;42209;6.376;-10.782;2024-01-06T10:54:30;23.70;57.50
56300;DHT22;42209;6.376;-10.782;2024-01-06T10:56:59;23.60;55.40
56300;DHT22;42209;6.376;-10.782;2024-01-06T10:59:30;23.40;54.40
56300;DHT22;42209;6.376;-10.782;2024-01-06T11:02:01;23.40;53.30
56300;DHT22;42209;6.376;-10.782;2024-01-06T11:04:30;23.30;52.20
56300;DHT22;42209;6.376;-10.782;2024-01-06T11:06:59;23.30;51.40
56300;DHT22;42209;6.376;-10.782;2024-01-06T11:09:32;23.30;50.60
56300;DHT22;42209;6.376;-10.782;2024-01-06T11:12:03;23.20;49.90
56300;DHT22;42209;6.376;-10.782;2024-01-06T11:14:37;23.20;49.30
56300;DHT22;42209;6.376;-10.782;2024-01-06T11:17:05;23.20;48.80
56300;DHT22;42209;6.376;-10.782;2024-01-06T11:22:25;23.10;47.60
56300;DHT22;42209;6.376;-10.782;2024-01-06T11:24:56;23.10;46.80
56300;DHT22;42209;6.376;-10.782;2024-01-06T11:27:26;23.10;46.60
56300;DHT22;42209;6.376;-10.782;2024-01-06T11:29:56;23.10;46.20
56300;DHT22;42209;6.376;-10.782;2024-01-06T11:32:26;23.00;45.80
56300;DHT22;42209;6.376;-10.782;2024-01-06T11:34:59;23.00;45.60
56300;DHT22;42209;6.376;-10.782;2024-01-06T11:37:37;23.00;45.20
56300;DHT22;42209;6.376;-10.782;2024-01-06T11:40:10;23.00;44.80
56300;DHT22;42209;6.376;-10.782;2024-01-06T11:42:41;23.00;44.50
56300;DHT22;42209;6.376;-10.782;2024-01-06T11:45:10;23.10;44.30
56300;DHT22;42209;6.376;-10.782;2024-01-06T11:47:39;23.00;43.80
56300;DHT22;42209;6.376;-10.782;2024-01-06T11:50:08;23.00;44.40
56300;DHT22;42209;6.376;-10.782;2024-01-06T11:52:36;23.00;44.80
56300;DHT22;42209;6.376;-10.782;2024-01-06T11:55:05;23.00;44.20
56300;DHT22;42209;6.376;-10.782;2024-01-06T11:57:34;23.00;44.40
56300;DHT22;42209;6.376;-10.782;2024-01-06T12:00:03;23.00;44.30
56300;DHT22;42209;6.376;-10.782;2024-01-06T12:02:32;23.00;43.80
56300;DHT22;42209;6.376;-10.782;2024-01-06T12:05:01;23.00;43.50
56300;DHT22;42209;6.376;-10.782;2024-01-06T12:07:30;23.00;43.20
56300;DHT22;42209;6.376;-10.782;2024-01-06T12:10:03;23.00;43.00
56300;DHT22;42209;6.376;-10.782;2024-01-06T12:12:31;23.00;42.70
56300;DHT22;42209;6.376;-10.782;2024-01-06T12:15:00;23.00;42.60
56300;DHT22;42209;6.376;-10.782;2024-01-06T12:17:30;23.00;42.40
56300;DHT22;42209;6.376;-10.782;2024-01-06T12:19:59;22.90;42.30
56300;DHT22;42209;6.376;-10.782;2024-01-06T12:22:28;22.90;42.10
56300;DHT22;42209;6.376;-10.782;2024-01-06T12:24:58;22.90;42.40
56300;DHT22;42209;6.376;-10.782;2024-01-06T12:27:27;23.00;41.90
56300;DHT22;42209;6.376;-10.782;2024-01-06T12:29:55;23.00;41.90
56300;DHT22;42209;6.376;-10.782;2024-01-06T12:32:24;23.00;42.10
56300;DHT22;42209;6.376;-10.782;2024-01-06T12:34:52;23.00;42.00
56300;DHT22;42209;6.376;-10.782;2024-01-06T12:37:23;22.90;41.80
56300;DHT22;42209;6.376;-10.782;2024-01-06T12:39:51;22.90;42.70
56300;DHT22;42209;6.376;-10.782;2024-01-06T12:42:19;22.90;42.40
56300;DHT22;42209;6.376;-10.782;2024-01-06T12:44:48;22.90;43.00
56300;DHT22;42209;6.376;-10.782;2024-01-06T12:47:16;22.90;42.90
56300;DHT22;42209;6.376;-10.782;2024-01-06T12:49:45;22.90;42.80
56300;DHT22;42209;6.376;-10.782;2024-01-06T12:52:13;22.90;42.70
56300;DHT22;42209;6.376;-10.782;2024-01-06T12:54:41;22.90;42.60
56300;DHT22;42209;6.376;-10.782;2024-01-06T12:57:14;22.90;42.60
56300;DHT22;42209;6.376;-10.782;2024-01-06T12:59:42;22.90;42.50
56300;DHT22;42209;6.376;-10.782;2024-01-06T13:02:11;22.90;42.40
56300;DHT22;42209;6.376;-10.782;2024-01-06T13:04:41;22.90;42.60
56300;DHT22;42209;6.376;-10.782;2024-01-06T13:07:10;22.90;42.40
56300;DHT22;42209;6.376;-10.782;2024-01-06T13:09:39;22.90;42.10
56300;DHT22;42209;6.376;-10.782;2024-01-06T13:12:08;22.90;42.00
56300;DHT22;42209;6.376;-10.782;2024-01-06T13:14:36;22.90;41.80
56300;DHT22;42209;6.376;-10.782;2024-01-06T13:17:04;22.80;41.70
56300;DHT22;42209;6.376;-10.782;2024-01-06T13:19:33;22.80;41.30
56300;DHT22;42209;6.376;-10.782;2024-01-06T13:22:02;22.80;41.40
56300;DHT22;42209;6.376;-10.782;2024-01-06T13:24:30;22.80;41.50
56300;DHT22;42209;6.376;-10.782;2024-01-06T13:26:58;22.90;46.60
56300;DHT22;42209;6.376;-10.782;2024-01-06T13:29:27;23.10;50.50
56300;DHT22;42209;6.376;-10.782;2024-01-06T13:31:55;23.30;52.00
56300;DHT22;42209;6.376;-10.782;2024-01-06T13:34:23;23.40;54.40
56300;DHT22;42209;6.376;-10.782;2024-01-06T13:36:52;23.60;55.60
56300;DHT22;42209;6.376;-10.782;2024-01-06T13:39:24;23.70;57.40
56300;DHT22;42209;6.376;-10.782;2024-01-06T13:41:52;23.80;58.40
56300;DHT22;42209;6.376;-10.782;2024-01-06T13:44:21;23.90;59.60
56300;DHT22;42209;6.376;-10.782;2024-01-06T13:46:49;23.90;60.50
56300;DHT22;42209;6.376;-10.782;2024-01-06T13:49:18;24.00;61.40
56300;DHT22;42209;6.376;-10.782;2024-01-06T13:51:46;24.00;57.70
56300;DHT22;42209;6.376;-10.782;2024-01-06T13:54:14;23.80;54.90
56300;DHT22;42209;6.376;-10.782;2024-01-06T13:56:46;23.60;53.30
56300;DHT22;42209;6.376;-10.782;2024-01-06T13:59:15;23.40;52.60
56300;DHT22;42209;6.376;-10.782;2024-01-06T14:01:44;23.30;51.60
56300;DHT22;42209;6.376;-10.782;2024-01-06T14:04:12;23.30;50.90
56300;DHT22;42209;6.376;-10.782;2024-01-06T14:06:40;23.30;50.00
56300;DHT22;42209;6.376;-10.782;2024-01-06T14:09:09;23.20;49.50
56300;DHT22;42209;6.376;-10.782;2024-01-06T14:11:37;23.10;48.90
56300;DHT22;42209;6.376;-10.782;2024-01-06T14:14:06;23.20;48.20
56300;DHT22;42209;6.376;-10.782;2024-01-06T14:16:34;23.10;47.80
56300;DHT22;42209;6.376;-10.782;2024-01-06T14:19:02;23.10;47.40
56300;DHT22;42209;6.376;-10.782;2024-01-06T14:21:31;23.20;47.10
56300;DHT22;42209;6.376;-10.782;2024-01-06T14:23:59;23.20;46.60
56300;DHT22;42209;6.376;-10.782;2024-01-06T14:26:28;23.10;46.30
56300;DHT22;42209;6.376;-10.782;2024-01-06T14:28:56;23.20;46.20
56300;DHT22;42209;6.376;-10.782;2024-01-06T14:31:27;23.20;45.90
56300;DHT22;42209;6.376;-10.782;2024-01-06T14:33:55;23.20;45.60
56300;DHT22;42209;6.376;-10.782;2024-01-06T14:36:27;23.20;45.20
56300;DHT22;42209;6.376;-10.782;2024-01-06T14:38:56;23.20;45.00
56300;DHT22;42209;6.376;-10.782;2024-01-06T14:41:24;23.10;44.70
56300;DHT22;42209;6.376;-10.782;2024-01-06T14:43:53;23.10;44.60
56300;DHT22;42209;6.376;-10.782;2024-01-06T14:46:21;23.10;44.30
56300;DHT22;42209;6.376;-10.782;2024-01-06T14:48:50;23.10;44.20
56300;DHT22;42209;6.376;-10.782;2024-01-06T14:51:18;23.10;44.10
56300;DHT22;42209;6.376;-10.782;2024-01-06T14:53:47;23.20;44.00
56300;DHT22;42209;6.376;-10.782;2024-01-06T14:56:15;23.20;43.90
56300;DHT22;42209;6.376;-10.782;2024-01-06T14:58:43;23.10;43.90
56300;DHT22;42209;6.376;-10.782;2024-01-06T15:01:12;23.20;44.70
56300;DHT22;42209;6.376;-10.782;2024-01-06T15:03:41;23.30;50.00
56300;DHT22;42209;6.376;-10.782;2024-01-06T15:06:09;23.60;55.10
56300;DHT22;42209;6.376;-10.782;2024-01-06T15:08:38;23.90;58.90
56300;DHT22;42209;6.376;-10.782;2024-01-06T15:11:06;24.00;58.10
56300;DHT22;42209;6.376;-10.782;2024-01-06T15:13:36;24.10;58.90
56300;DHT22;42209;6.376;-10.782;2024-01-06T15:16:04;24.10;60.40
56300;DHT22;42209;6.376;-10.782;2024-01-06T15:18:33;24.20;59.60
56300;DHT22;42209;6.376;-10.782;2024-01-06T15:21:02;24.20;57.70
56300;DHT22;42209;6.376;-10.782;2024-01-06T15:23:30;24.30;58.90
56300;DHT22;42209;6.376;-10.782;2024-01-06T15:25:59;24.20;57.90
56300;DHT22;42209;6.376;-10.782;2024-01-06T15:28:27;24.20;57.30